createdAt,value
2023-01-18T00:02:27.427Z,4.07
2023-01-18T00:05:29.069Z,3.80
2023-01-18T00:08:31.884Z,4.27
2023-01-18T00:11:33.318Z,3.40
2023-01-18T00:14:34.737Z,3.80
2023-01-18T00:17:47.450Z,3.80
2023-01-18T00:20:48.875Z,3.70
2023-01-18T00:23:50.725Z,3.53
2023-01-18T00:26:52.153Z,3.33
2023-01-18T00:29:53.597Z,4.07
2023-01-18T00:32:59.143Z,3.13
2023-01-18T00:36:03.001Z,3.80
2023-01-18T00:39:04.505Z,4.03
2023-01-18T00:42:24.231Z,4.30
2023-01-18T00:45:25.953Z,4.17
2023-01-18T00:48:27.391Z,3.53
2023-01-18T00:51:28.777Z,3.57
2023-01-18T00:54:30.158Z,4.33
2023-01-18T00:57:31.605Z,3.80
2023-01-18T01:00:33.409Z,4.10
2023-01-18T01:03:54.921Z,3.87
2023-01-18T01:06:56.442Z,3.50
2023-01-18T01:09:58.109Z,3.27
2023-01-18T01:13:17.901Z,3.37
2023-01-18T01:16:38.390Z,3.60
2023-01-18T01:19:58.395Z,3.70
2023-01-18T01:23:34.097Z,4.00
2023-01-18T01:26:35.661Z,3.53
2023-01-18T01:29:37.998Z,3.60
2023-01-18T01:32:39.405Z,3.57
2023-01-18T01:35:40.776Z,3.77
2023-01-18T01:38:42.241Z,3.87
2023-01-18T01:41:43.713Z,4.37
2023-01-18T01:44:52.056Z,5.10
2023-01-18T01:47:54.485Z,4.90
2023-01-18T01:50:55.977Z,4.97
2023-01-18T01:54:01.614Z,5.43
2023-01-18T01:57:12.594Z,5.23
2023-01-18T02:00:24.204Z,5.60
2023-01-18T02:03:25.763Z,5.73
2023-01-18T02:06:34.251Z,5.50
2023-01-18T02:09:35.687Z,5.73
2023-01-18T02:12:40.581Z,5.37
2023-01-18T02:16:03.050Z,5.77
2023-01-18T02:19:22.359Z,4.70
2023-01-18T02:23:09.517Z,5.10
2023-01-18T02:26:41.561Z,4.90
2023-01-18T02:30:24.951Z,4.73
2023-01-18T02:33:42.842Z,5.67
2023-01-18T02:37:16.611Z,5.23
2023-01-18T02:40:32.136Z,5.40
2023-01-18T02:43:53.648Z,5.20
2023-01-18T02:46:55.255Z,6.10
2023-01-18T02:49:57.667Z,5.33
2023-01-18T02:52:59.380Z,5.80
2023-01-18T02:56:03.547Z,5.70
2023-01-18T02:59:35.135Z,6.40
2023-01-18T03:02:39.408Z,5.80
2023-01-18T03:05:42.987Z,6.17
2023-01-18T03:08:50.351Z,5.97
2023-01-18T03:12:02.138Z,5.70
2023-01-18T03:15:18.754Z,6.67
2023-01-18T03:18:35.494Z,7.00
2023-01-18T03:21:43.262Z,6.50
2023-01-18T03:24:45.884Z,6.50
2023-01-18T03:28:09.711Z,6.40
2023-01-18T03:31:35.541Z,6.13
2023-01-18T03:35:08.831Z,6.27
2023-01-18T03:38:10.617Z,5.50
2023-01-18T03:41:15.518Z,5.40
2023-01-18T03:44:25.571Z,5.13
2023-01-18T03:47:27.130Z,6.00
2023-01-18T03:50:39.100Z,5.40
2023-01-18T03:53:54.343Z,5.13
2023-01-18T03:57:15.253Z,4.57
2023-01-18T04:00:18.058Z,5.23
2023-01-18T04:03:19.422Z,5.40
2023-01-18T04:06:22.821Z,5.30
2023-01-18T04:09:25.377Z,5.50
2023-01-18T04:12:27.344Z,4.73
2023-01-18T04:15:28.754Z,5.47
2023-01-18T04:18:30.121Z,5.23
2023-01-18T04:21:31.505Z,4.67
2023-01-18T04:24:32.922Z,5.03
2023-01-18T04:27:34.437Z,5.07
2023-01-18T04:30:35.831Z,5.60
2023-01-18T04:33:37.279Z,5.23
2023-01-18T04:36:38.776Z,5.03
2023-01-18T04:39:40.176Z,5.03
2023-01-18T04:42:41.595Z,5.70
2023-01-18T04:45:43.087Z,5.83
2023-01-18T04:48:44.548Z,5.37
2023-01-18T04:51:46.834Z,5.80
2023-01-18T04:54:48.226Z,4.90
2023-01-18T04:57:56.504Z,5.30
2023-01-18T05:01:01.682Z,5.33
2023-01-18T05:04:03.491Z,5.23
2023-01-18T05:07:04.941Z,4.93
2023-01-18T05:10:06.664Z,4.63
2023-01-18T05:13:08.150Z,5.27
2023-01-18T05:16:15.042Z,5.33
2023-01-18T05:19:16.415Z,5.00
2023-01-18T05:22:17.807Z,5.03
2023-01-18T05:25:19.218Z,4.70
2023-01-18T05:28:22.073Z,4.87
2023-01-18T05:31:23.845Z,4.70
2023-01-18T05:34:27.134Z,5.27
2023-01-18T05:37:28.507Z,4.80
2023-01-18T05:40:29.936Z,4.37
2023-01-18T05:43:31.774Z,5.10
2023-01-18T05:46:33.167Z,4.80
2023-01-18T05:49:34.547Z,4.60
2023-01-18T05:52:35.949Z,4.93
2023-01-18T05:55:37.491Z,5.53
2023-01-18T05:58:38.937Z,6.47
2023-01-18T06:01:40.459Z,5.70
2023-01-18T06:04:44.192Z,6.37
2023-01-18T06:07:45.623Z,5.63
2023-01-18T06:10:57.850Z,5.53
2023-01-18T06:13:59.525Z,5.90
2023-01-18T06:17:01.624Z,5.87
2023-01-18T06:20:04.718Z,6.03
2023-01-18T06:23:06.109Z,5.70
2023-01-18T06:26:07.702Z,5.83
2023-01-18T06:29:09.188Z,6.33
2023-01-18T06:32:10.597Z,6.60
2023-01-18T06:35:11.982Z,6.77
2023-01-18T06:38:13.978Z,6.93
2023-01-18T06:41:15.897Z,7.03
2023-01-18T06:44:17.390Z,6.60
2023-01-18T06:47:19.885Z,7.20
2023-01-18T06:50:22.448Z,7.90
2023-01-18T06:53:24.422Z,7.03
2023-01-18T06:56:26.765Z,6.87
2023-01-18T06:59:28.464Z,7.07
2023-01-18T07:02:29.845Z,7.93
2023-01-18T07:05:31.257Z,7.90
2023-01-18T07:08:32.925Z,7.47
2023-01-18T07:11:35.728Z,7.40
2023-01-18T07:14:37.285Z,7.17
2023-01-18T07:17:38.679Z,7.30
2023-01-18T07:20:40.073Z,7.50
2023-01-18T07:23:42.298Z,7.80
2023-01-18T07:26:44.086Z,7.87
2023-01-18T07:29:45.489Z,7.33
2023-01-18T07:32:50.919Z,7.10
2023-01-18T07:35:53.879Z,7.80
2023-01-18T07:38:55.579Z,7.40
2023-01-18T07:41:57.052Z,8.07
2023-01-18T07:44:58.439Z,8.37
2023-01-18T07:48:00.620Z,7.00
2023-01-18T07:51:04.627Z,6.93
2023-01-18T07:54:07.162Z,6.73
2023-01-18T07:57:08.639Z,8.27
2023-01-18T08:00:12.046Z,7.63
2023-01-18T08:03:16.855Z,7.03
2023-01-18T08:06:24.906Z,7.00
2023-01-18T08:09:26.523Z,7.83
2023-01-18T08:12:28.039Z,7.13
2023-01-18T08:15:31.288Z,7.40
2023-01-18T08:18:33.329Z,6.60
2023-01-18T08:21:34.757Z,7.17
2023-01-18T08:24:36.739Z,7.13
2023-01-18T08:27:38.790Z,6.33
2023-01-18T08:30:46.089Z,6.50
2023-01-18T08:33:48.730Z,6.37
2023-01-18T08:36:51.035Z,5.97
2023-01-18T08:39:52.447Z,6.30
2023-01-18T08:42:59.626Z,6.20
2023-01-18T08:46:01.334Z,5.87
2023-01-18T08:49:05.669Z,6.00
2023-01-18T08:52:07.398Z,5.77
2023-01-18T08:55:09.228Z,5.73
2023-01-18T08:58:11.913Z,5.50
2023-01-18T09:01:13.675Z,5.93
2023-01-18T09:04:15.103Z,4.70
2023-01-18T09:07:23.030Z,5.00
2023-01-18T09:10:24.602Z,4.10
2023-01-18T09:13:26.125Z,4.90
2023-01-18T09:16:28.298Z,4.27
2023-01-18T09:19:30.068Z,4.63
2023-01-18T09:22:31.456Z,3.90
2023-01-18T09:25:33.198Z,4.10
2023-01-18T09:28:35.493Z,3.93
2023-01-18T09:31:37.181Z,3.93
2023-01-18T09:34:38.971Z,4.30
2023-01-18T09:37:40.429Z,4.10
2023-01-18T09:40:44.615Z,4.10
2023-01-18T09:43:52.206Z,3.83
2023-01-18T09:46:58.557Z,3.40
2023-01-18T09:50:06.613Z,3.40
2023-01-18T09:53:41.376Z,3.57
2023-01-18T09:56:51.926Z,3.63
2023-01-18T09:59:59.374Z,3.60
2023-01-18T10:03:08.842Z,3.57
2023-01-18T10:06:18.486Z,5.03
2023-01-18T10:09:27.165Z,8.60
2023-01-18T10:12:40.922Z,5.30
2023-01-18T10:15:42.524Z,7.80
2023-01-18T10:18:48.801Z,4.10
2023-01-18T10:21:57.811Z,3.77
2023-01-18T10:25:14.819Z,3.83
2023-01-18T10:28:50.381Z,4.00
2023-01-18T10:32:00.471Z,3.57
2023-01-18T10:35:14.199Z,3.43
2023-01-18T10:38:20.864Z,4.90
2023-01-18T10:41:28.958Z,3.43
2023-01-18T10:44:31.529Z,3.23
2023-01-18T10:47:33.906Z,3.33
2023-01-18T10:50:43.909Z,3.40
2023-01-18T10:53:45.314Z,3.53
2023-01-18T10:56:46.712Z,3.10
2023-01-18T10:59:51.416Z,3.60
2023-01-18T11:02:55.540Z,3.47
2023-01-18T11:06:06.898Z,3.63
2023-01-18T11:09:34.208Z,3.27
2023-01-18T11:12:47.723Z,3.67
2023-01-18T11:16:02.428Z,3.40
2023-01-18T11:19:15.872Z,3.40
2023-01-18T11:22:17.441Z,3.80
2023-01-18T11:25:18.976Z,3.20
2023-01-18T11:28:22.659Z,3.87
2023-01-18T11:31:26.266Z,3.13
2023-01-18T11:34:31.423Z,3.30
2023-01-18T11:37:38.267Z,3.30
2023-01-18T11:40:39.665Z,3.30
2023-01-18T11:43:53.122Z,3.10
2023-01-18T11:46:57.883Z,3.40
2023-01-18T11:50:21.378Z,3.10
2023-01-18T11:53:26.593Z,2.73
2023-01-18T11:56:45.136Z,3.07
2023-01-18T11:59:48.658Z,2.80
2023-01-18T12:02:57.809Z,3.07
2023-01-18T12:06:26.933Z,2.93
2023-01-18T12:09:52.431Z,3.27
2023-01-18T12:13:27.823Z,3.50
2023-01-18T12:17:01.533Z,3.30
2023-01-18T12:20:31.204Z,3.63
2023-01-18T12:23:56.960Z,3.40
2023-01-18T12:27:04.031Z,3.80
2023-01-18T12:30:32.823Z,4.20
2023-01-18T12:33:44.195Z,3.33
2023-01-18T12:37:02.634Z,3.87
2023-01-18T12:40:34.516Z,3.90
2023-01-18T12:44:05.404Z,4.90
2023-01-18T12:47:35.006Z,3.80
2023-01-18T12:50:39.263Z,3.43
2023-01-18T12:54:13.299Z,3.30
2023-01-18T12:57:16.946Z,3.20
2023-01-18T13:00:28.256Z,3.33
2023-01-18T13:03:35.313Z,3.60
2023-01-18T13:06:39.496Z,3.73
2023-01-18T13:09:46.437Z,3.33
2023-01-18T13:12:50.813Z,3.13
2023-01-18T13:16:13.582Z,3.30
2023-01-18T13:19:24.800Z,3.63
2023-01-18T13:22:35.633Z,4.07
2023-01-18T13:25:51.248Z,3.53
2023-01-18T13:29:16.750Z,3.80
2023-01-18T13:32:24.647Z,3.80
2023-01-18T13:35:33.446Z,3.50
2023-01-18T13:38:41.512Z,4.20
2023-01-18T13:42:02.248Z,3.83
2023-01-18T13:45:17.156Z,4.07
2023-01-18T13:49:01.576Z,3.93
2023-01-18T13:52:32.560Z,4.13
2023-01-18T13:55:33.961Z,4.27
2023-01-18T13:58:40.164Z,4.10
2023-01-18T14:01:44.049Z,3.60
2023-01-18T14:04:46.116Z,4.17
2023-01-18T14:07:51.788Z,3.97
2023-01-18T14:11:04.317Z,4.13
2023-01-18T14:14:11.770Z,4.27
2023-01-18T14:17:16.389Z,3.60
2023-01-18T14:20:37.968Z,3.67
2023-01-18T14:24:09.493Z,3.33
2023-01-18T14:27:21.866Z,3.00
2023-01-18T14:30:29.539Z,3.07
2023-01-18T14:33:38.037Z,3.30
2023-01-18T14:36:39.431Z,3.60
2023-01-18T14:39:41.039Z,3.07
2023-01-18T14:42:55.787Z,2.97
2023-01-18T14:46:01.333Z,2.77
2023-01-18T14:49:02.801Z,3.10
2023-01-18T14:52:07.739Z,3.20
2023-01-18T14:55:27.064Z,2.90
2023-01-18T14:58:28.808Z,2.60
2023-01-18T15:01:39.105Z,2.90
2023-01-18T15:04:45.343Z,2.93
2023-01-18T15:07:55.761Z,3.17
2023-01-18T15:10:58.198Z,2.90
2023-01-18T15:14:00.082Z,3.17
2023-01-18T15:17:06.112Z,4.17
2023-01-18T15:20:14.470Z,4.40
2023-01-18T15:23:16.191Z,5.83
2023-01-18T15:26:17.573Z,4.60
2023-01-18T15:29:26.431Z,5.07
2023-01-18T15:32:37.397Z,4.20
2023-01-18T15:35:38.877Z,4.53
2023-01-18T15:38:40.307Z,3.60
2023-01-18T15:41:43.601Z,3.90
2023-01-18T15:44:51.512Z,4.33
2023-01-18T15:48:08.049Z,3.50
2023-01-18T15:51:10.883Z,3.70
2023-01-18T15:54:22.865Z,4.03
2023-01-18T15:57:24.356Z,3.70
2023-01-18T16:00:30.689Z,4.10
2023-01-18T16:03:41.166Z,3.87
2023-01-18T16:06:45.385Z,4.00
2023-01-18T16:09:46.832Z,3.87
2023-01-18T16:12:48.380Z,4.00
2023-01-18T16:16:04.959Z,3.80
2023-01-18T16:19:34.769Z,3.97
2023-01-18T16:22:37.111Z,3.93
2023-01-18T16:25:39.107Z,3.90
2023-01-18T16:28:40.875Z,4.43
2023-01-18T16:31:43.953Z,4.50
2023-01-18T16:34:45.561Z,4.63
2023-01-18T16:37:47.995Z,4.50
2023-01-18T16:40:50.849Z,4.27
2023-01-18T16:43:52.243Z,4.53
2023-01-18T16:46:53.862Z,4.30
2023-01-18T16:49:55.297Z,4.33
2023-01-18T16:52:56.711Z,4.37
2023-01-18T16:55:58.093Z,4.40
2023-01-18T16:59:00.682Z,4.97
2023-01-18T17:02:02.273Z,4.83
2023-01-18T17:05:04.022Z,5.50
2023-01-18T17:08:05.399Z,6.40
2023-01-18T17:11:06.955Z,5.53
2023-01-18T17:14:08.622Z,5.37
2023-01-18T17:17:10.851Z,5.17
2023-01-18T17:20:17.994Z,4.80
2023-01-18T17:23:19.429Z,4.43
2023-01-18T17:26:20.892Z,4.60
2023-01-18T17:29:22.521Z,4.37
2023-01-18T17:32:24.021Z,4.67
2023-01-18T17:35:27.692Z,4.83
2023-01-18T17:41:33.660Z,4.67
2023-01-18T17:44:37.413Z,4.90
2023-01-18T17:47:39.208Z,5.47
2023-01-18T17:50:41.582Z,6.10
2023-01-18T17:53:43.425Z,6.17
2023-01-18T17:56:45.214Z,6.67
2023-01-18T17:59:46.639Z,7.13
2023-01-18T18:02:50.938Z,6.93
2023-01-18T18:05:57.603Z,7.30
2023-01-18T18:09:00.485Z,6.67
2023-01-18T18:12:01.964Z,7.13
2023-01-18T18:15:05.024Z,8.60
2023-01-18T18:18:12.300Z,8.93
2023-01-18T18:21:26.154Z,8.20
2023-01-18T18:24:27.559Z,9.27
2023-01-18T18:27:44.455Z,11.27
2023-01-18T18:30:51.293Z,11.60
2023-01-18T18:33:52.791Z,13.23
2023-01-18T18:36:54.271Z,12.70
2023-01-18T18:39:55.897Z,13.43
2023-01-18T18:43:02.363Z,11.13
2023-01-18T18:46:04.293Z,10.43
2023-01-18T18:49:06.833Z,11.70
2023-01-18T18:52:08.259Z,12.00
2023-01-18T18:55:11.184Z,14.80
2023-01-18T18:58:12.752Z,14.03
2023-01-18T19:01:22.559Z,14.90
2023-01-18T19:04:24.805Z,15.53
2023-01-18T19:07:26.796Z,16.60
2023-01-18T19:10:30.216Z,17.70
2023-01-18T19:13:31.637Z,16.60
2023-01-18T19:16:33.181Z,15.90
2023-01-18T19:19:34.703Z,15.80
2023-01-18T19:22:37.911Z,13.40
2023-01-18T19:25:40.485Z,13.83
2023-01-18T19:28:42.085Z,12.53
2023-01-18T19:31:43.614Z,11.43
2023-01-18T19:34:45.007Z,11.47
2023-01-18T19:37:47.361Z,11.53
2023-01-18T19:40:48.881Z,11.17
2023-01-18T19:43:50.561Z,10.87
2023-01-18T19:46:53.888Z,10.33
2023-01-18T19:49:57.187Z,9.93
2023-01-18T19:52:59.603Z,9.40
2023-01-18T19:56:07.173Z,8.57
2023-01-18T19:59:11.211Z,7.93
2023-01-18T20:02:12.822Z,8.07
2023-01-18T20:05:14.347Z,7.83
2023-01-18T20:08:15.812Z,8.07
2023-01-18T20:11:17.340Z,8.57
2023-01-18T20:14:19.548Z,9.03
2023-01-18T20:17:20.979Z,7.80
2023-01-18T20:20:31.850Z,8.53
2023-01-18T20:23:34.061Z,7.03
2023-01-18T20:26:37.721Z,7.83
2023-01-18T20:29:39.660Z,7.87
2023-01-18T20:32:41.119Z,7.57
2023-01-18T20:35:42.921Z,8.50
2023-01-18T20:38:44.440Z,7.60
2023-01-18T20:41:48.610Z,7.57
2023-01-18T20:44:53.471Z,8.20
2023-01-18T20:47:54.977Z,8.63
2023-01-18T20:51:00.564Z,8.30
2023-01-18T20:54:02.287Z,7.87
2023-01-18T20:57:06.947Z,7.20
2023-01-18T21:00:09.177Z,7.10
2023-01-18T21:03:13.831Z,7.27
2023-01-18T21:06:16.012Z,7.57
2023-01-18T21:09:17.514Z,7.57
2023-01-18T21:12:18.989Z,7.80
2023-01-18T21:15:20.420Z,8.20
2023-01-18T21:18:21.916Z,8.50
2023-01-18T21:21:23.857Z,8.10
2023-01-18T21:24:25.311Z,7.97
2023-01-18T21:27:27.176Z,7.37
2023-01-18T21:30:28.711Z,7.80
2023-01-18T21:33:30.189Z,7.13
2023-01-18T21:36:31.743Z,8.27
2023-01-18T21:39:33.236Z,8.20
2023-01-18T21:42:53.327Z,9.37
2023-01-18T21:45:58.648Z,7.80
2023-01-18T21:49:05.140Z,8.17
2023-01-18T21:52:26.419Z,7.83
2023-01-18T21:55:27.978Z,7.70
2023-01-18T21:58:48.212Z,7.20
2023-01-18T22:01:49.758Z,7.40
2023-01-18T22:05:00.327Z,7.30
2023-01-18T22:08:02.110Z,7.80
2023-01-18T22:11:03.788Z,7.40
2023-01-18T22:14:06.188Z,7.80
2023-01-18T22:17:08.431Z,8.07
2023-01-18T22:20:11.218Z,7.93
2023-01-18T22:23:12.597Z,7.93
2023-01-18T22:26:14.224Z,7.90
2023-01-18T22:29:15.693Z,8.03
2023-01-18T22:32:17.200Z,8.77
2023-01-18T22:35:18.770Z,8.07
2023-01-18T22:38:20.168Z,7.40
2023-01-18T22:41:24.981Z,7.97
2023-01-18T22:44:26.457Z,8.60
2023-01-18T22:47:27.919Z,7.50
2023-01-18T22:50:29.359Z,8.10
2023-01-18T22:53:31.901Z,8.27
2023-01-18T22:56:35.114Z,8.63
2023-01-18T22:59:36.527Z,7.97
2023-01-18T23:02:38.229Z,8.57
2023-01-18T23:05:39.663Z,8.33
2023-01-18T23:08:44.050Z,8.83
2023-01-18T23:11:47.455Z,7.97
2023-01-18T23:15:07.491Z,8.43
2023-01-18T23:18:08.887Z,8.33
2023-01-18T23:21:10.296Z,8.37
2023-01-18T23:24:12.002Z,9.13
2023-01-18T23:27:13.400Z,8.77
2023-01-18T23:30:15.185Z,8.70
2023-01-18T23:33:16.575Z,8.90
2023-01-18T23:36:18.108Z,9.50
2023-01-18T23:39:38.193Z,8.90
2023-01-18T23:42:58.238Z,9.37
2023-01-18T23:46:17.894Z,9.63
2023-01-18T23:49:37.994Z,9.07
2023-01-18T23:52:57.747Z,9.20
2023-01-18T23:55:59.527Z,8.90
2023-01-18T23:59:01.038Z,9.83
